Time;durP1;ratioP1;P1;durP2;ratioP2;P2;SDS_P1;SDS_P2;PMS_P1;PMS_P2;Temp;Humidity;BMP_temperature;BMP_pressure;BME280_temperature;BME280_humidity;BME280_pressure;Samples;Min_cycle;Max_cycle;Signal;HPM_P1;HPM_P2
2024/01/12 00:00:00;;;;;;;38.30;23.27;;;;;;;-0.72;67.40;102111.72;4198995;28;20047;-62
2024/01/12 00:02:13;;;;;;;41.20;24.58;;;;;;;-0.83;68.07;102109.94;4192184;28;20128;-64
2024/01/12 00:04:16;;;;;;;37.83;21.88;;;;;;;-0.66;67.30;102113.03;4194668;28;20094;-64
2024/01/12 00:06:20;;;;;;;34.55;20.83;;;;;;;-0.69;66.82;102115.34;4192627;28;20040;-63
2024/01/12 00:08:23;;;;;;;33.88;19.85;;;;;;;-0.60;67.94;102117.03;4196654;28;20476;-64
2024/01/12 00:10:26;;;;;;;33.08;20.17;;;;;;;-0.76;68.26;102124.09;4194321;28;20506;-64
2024/01/12 00:12:29;;;;;;;29.80;18.58;;;;;;;-0.78;67.29;102123.09;4185768;28;20075;-63
2024/01/12 00:14:32;;;;;;;29.83;18.55;;;;;;;-0.79;68.19;102122.22;4197640;28;20536;-64
2024/01/12 00:16:35;;;;;;;30.30;17.73;;;;;;;-0.86;67.83;102125.00;4195146;28;20128;-64
2024/01/12 00:18:39;;;;;;;31.35;17.77;;;;;;;-0.80;68.79;102125.50;4195753;28;20166;-64
2024/01/12 00:20:43;;;;;;;31.23;17.92;;;;;;;-0.86;68.72;102122.44;4191360;28;20044;-63
2024/01/12 00:22:48;;;;;;;25.58;17.33;;;;;;;-0.87;68.07;102120.63;4196270;28;20498;-63
2024/01/12 00:24:51;;;;;;;30.40;16.88;;;;;;;-0.83;68.22;102121.78;4187007;28;20040;-63
2024/01/12 00:26:53;;;;;;;27.63;15.95;;;;;;;-0.71;68.08;102116.09;4190060;28;20415;-63
2024/01/12 00:28:56;;;;;;;26.08;15.13;;;;;;;-0.67;68.56;102116.34;4181809;28;20064;-63
2024/01/12 00:30:59;;;;;;;26.30;15.20;;;;;;;-0.64;67.94;102116.59;4188586;28;20091;-63
2024/01/12 00:33:02;;;;;;;27.42;15.15;;;;;;;-0.60;68.07;102123.78;4195621;28;20040;-63
2024/01/12 00:35:06;;;;;;;23.23;13.23;;;;;;;-0.52;68.70;102127.00;4195727;28;20409;-63
2024/01/12 00:37:09;;;;;;;23.92;14.38;;;;;;;-0.58;68.64;102123.16;4194910;28;20048;-64
2024/01/12 00:39:13;;;;;;;25.75;15.15;;;;;;;-0.49;67.33;102123.06;4187964;28;20037;-64
2024/01/12 00:41:16;;;;;;;23.85;14.55;;;;;;;-0.47;67.77;102126.63;4192976;28;20040;-64
2024/01/12 00:43:19;;;;;;;24.73;14.50;;;;;;;-0.51;67.86;102127.16;4191758;28;20029;-64
2024/01/12 00:45:21;;;;;;;27.52;15.77;;;;;;;-0.39;67.55;102117.97;4192897;28;20122;-64
2024/01/12 00:47:24;;;;;;;24.38;15.32;;;;;;;-0.43;68.31;102126.13;4195631;28;20039;-64
2024/01/12 00:49:27;;;;;;;28.48;14.65;;;;;;;-0.53;68.44;102128.66;4196726;28;20120;-64
2024/01/12 00:51:30;;;;;;;27.02;16.05;;;;;;;-0.51;68.04;102128.78;4197107;28;20094;-64
2024/01/12 00:53:33;;;;;;;22.38;14.57;;;;;;;-0.60;68.88;102134.91;4193256;28;20730;-64
2024/01/12 00:55:38;;;;;;;25.00;14.55;;;;;;;-0.57;68.54;102135.16;4196434;28;20085;-63
2024/01/12 00:57:41;;;;;;;26.75;15.50;;;;;;;-0.56;69.02;102142.06;4195579;28;20044;-64
2024/01/12 00:59:44;;;;;;;23.33;13.57;;;;;;;-0.64;69.61;102140.50;4197217;28;20094;-64
2024/01/12 01:01:46;;;;;;;26.15;15.23;;;;;;;-0.71;70.30;102139.06;4196661;28;20437;-64
2024/01/12 01:03:52;;;;;;;24.48;14.70;;;;;;;-0.64;70.29;102142.16;4195696;28;20051;-64
2024/01/12 01:05:55;;;;;;;24.17;15.02;;;;;;;-0.63;69.50;102141.41;4195704;28;20066;-64
2024/01/12 01:07:57;;;;;;;22.08;14.25;;;;;;;-0.71;70.72;102144.19;4187521;28;20051;-64
2024/01/12 01:10:00;;;;;;;22.55;14.23;;;;;;;-0.66;70.02;102138.59;4195622;28;20040;-64
2024/01/12 01:12:05;;;;;;;23.17;14.35;;;;;;;-0.67;70.04;102142.81;4194142;28;20036;-64
2024/01/12 01:14:09;;;;;;;24.35;15.10;;;;;;;-0.66;70.13;102142.03;4196472;28;20095;-64
2024/01/12 01:16:12;;;;;;;26.17;16.13;;;;;;;-0.58;70.94;102143.59;4196419;28;20040;-64
2024/01/12 01:18:17;;;;;;;24.00;15.02;;;;;;;-0.57;70.15;102147.03;4196329;28;20051;-64
2024/01/12 01:20:21;;;;;;;25.77;15.80;;;;;;;-0.53;70.64;102151.66;4195710;28;20036;-64
2024/01/12 01:22:25;;;;;;;22.23;13.57;;;;;;;-0.55;70.37;102148.97;4194160;28;20072;-64
2024/01/12 01:24:29;;;;;;;23.60;13.43;;;;;;;-0.49;70.38;102153.72;4196474;28;20048;-64
2024/01/12 01:26:31;;;;;;;22.50;14.90;;;;;;;-0.46;70.37;102153.97;4192757;28;20537;-64
2024/01/12 01:28:35;;;;;;;25.45;14.38;;;;;;;-0.40;70.88;102157.03;4193122;28;20097;-64
2024/01/12 01:30:38;;;;;;;22.05;14.10;;;;;;;-0.37;69.83;102159.84;4194223;28;20469;-63
2024/01/12 01:32:42;;;;;;;23.13;14.35;;;;;;;-0.32;69.80;102156.81;4195245;28;20070;-63
2024/01/12 01:34:45;;;;;;;22.02;14.02;;;;;;;-0.41;71.05;102160.38;4196178;28;20525;-64
2024/01/12 01:36:48;;;;;;;21.45;12.73;;;;;;;-0.44;70.83;102162.69;4194485;28;20123;-64
2024/01/12 01:38:51;;;;;;;21.60;13.05;;;;;;;-0.42;70.35;102161.13;4191112;28;20604;-64
2024/01/12 01:40:54;;;;;;;21.65;13.05;;;;;;;-0.38;70.87;102173.41;4194355;28;20059;-63
2024/01/12 01:42:58;;;;;;;26.60;13.25;;;;;;;-0.45;71.12;102173.66;4187993;28;20045;-64
2024/01/12 01:45:02;;;;;;;24.95;12.82;;;;;;;-0.29;71.18;102178.41;4195153;28;20051;-64
2024/01/12 01:47:05;;;;;;;;;;;;;;;-0.37;70.15;102164.97;4196548;28;20444;-64
2024/01/12 01:49:08;;;;;;;26.70;12.65;;;;;;;-0.42;70.64;102170.47;4185219;28;20071;-65
2024/01/12 01:51:12;;;;;;;24.08;13.93;;;;;;;-0.31;70.74;102177.38;4188431;28;20037;-64
2024/01/12 01:53:16;;;;;;;24.27;14.02;;;;;;;-0.31;70.32;102169.72;4195005;28;20506;-64
2024/01/12 01:55:19;;;;;;;22.00;13.75;;;;;;;-0.39;70.73;102166.50;4195933;28;20508;-64
2024/01/12 01:57:23;;;;;;;26.08;15.00;;;;;;;-0.39;71.55;102165.63;4194596;28;20513;-64
2024/01/12 01:59:26;;;;;;;28.15;14.65;;;;;;;-0.44;72.26;102166.88;4193688;28;20173;-64
2024/01/12 02:01:30;;;;;;;26.83;14.30;;;;;;;-0.42;72.22;102162.81;4187817;28;20037;-65
2024/01/12 02:03:34;;;;;;;26.53;16.37;;;;;;;-0.31;71.62;102171.38;4193976;28;20094;-65
2024/01/12 02:05:37;;;;;;;25.20;15.53;;;;;;;-0.34;71.78;102163.47;4193015;28;20052;-65
2024/01/12 02:07:40;;;;;;;28.45;17.02;;;;;;;-0.37;71.60;102167.53;4193975;28;20486;-64
2024/01/12 02:09:43;;;;;;;28.52;17.25;;;;;;;-0.42;71.90;102170.47;4196763;28;20037;-64
2024/01/12 02:11:46;;;;;;;24.58;15.95;;;;;;;-0.44;72.61;102172.91;4191110;28;20040;-65
2024/01/12 02:13:50;;;;;;;26.48;16.05;;;;;;;-0.40;72.96;102169.81;4190060;28;20033;-65
2024/01/12 02:15:53;;;;;;;28.45;17.58;;;;;;;-0.38;72.18;102164.84;4194844;28;20489;-65
2024/01/12 02:17:57;;;;;;;29.77;16.38;;;;;;;-0.38;72.53;102168.31;4183066;28;20047;-65
2024/01/12 02:20:01;;;;;;;25.52;15.85;;;;;;;-0.32;72.78;102169.59;4192699;28;20064;-65
2024/01/12 02:22:05;;;;;;;26.45;17.33;;;;;;;-0.37;72.31;102174.31;4191778;28;20131;-64
2024/01/12 02:24:08;;;;;;;26.13;17.52;;;;;;;-0.36;72.76;102171.00;4187272;28;20045;-65
2024/01/12 02:26:11;;;;;;;28.52;17.33;;;;;;;-0.39;73.11;102169.06;4195785;28;20047;-65
2024/01/12 02:28:15;;;;;;;26.45;17.08;;;;;;;-0.37;72.91;102158.97;4193539;28;20044;-64
2024/01/12 02:30:18;;;;;;;22.38;15.32;;;;;;;-0.42;73.22;102156.03;4194903;28;20410;-64
2024/01/12 02:32:22;;;;;;;24.55;15.68;;;;;;;-0.41;72.86;102147.59;4190087;28;20041;-65
2024/01/12 02:34:25;;;;;;;29.33;16.73;;;;;;;-0.38;72.52;102142.75;4195549;28;20464;-64
2024/01/12 02:36:27;;;;;;;24.63;15.57;;;;;;;-0.37;72.57;102136.84;4191671;28;20482;-64
2024/01/12 02:38:31;;;;;;;25.58;16.15;;;;;;;-0.28;73.04;102143.53;4194439;28;20098;-64
2024/01/12 02:40:34;;;;;;;27.30;16.58;;;;;;;-0.27;72.66;102137.66;4191567;28;20032;-64
2024/01/12 02:42:37;;;;;;;26.00;16.33;;;;;;;-0.24;72.11;102137.91;4190129;28;20040;-64
2024/01/12 02:44:41;;;;;;;25.27;15.43;;;;;;;-0.21;72.75;102141.63;4195460;28;20036;-64
2024/01/12 02:46:44;;;;;;;29.73;16.33;;;;;;;-0.23;71.74;102142.28;4189260;28;20037;-64
2024/01/12 02:48:46;;;;;;;27.38;17.23;;;;;;;-0.20;71.63;102143.41;4193235;28;20040;-64
2024/01/12 02:50:49;;;;;;;23.30;14.98;;;;;;;-0.24;72.51;102138.81;4190561;28;20060;-64
2024/01/12 02:52:52;;;;;;;26.23;16.08;;;;;;;-0.24;71.96;102135.38;4194141;28;20040;-65
2024/01/12 02:54:56;;;;;;;26.55;16.33;;;;;;;-0.24;72.30;102136.25;4195438;28;20036;-64
2024/01/12 02:56:58;;;;;;;23.35;16.73;;;;;;;-0.23;71.73;102137.16;4186933;28;20068;-64
2024/01/12 02:59:01;;;;;;;25.65;16.40;;;;;;;-0.20;71.54;102137.41;4194224;28;20045;-64
2024/01/12 03:01:04;;;;;;;26.33;17.73;;;;;;;-0.13;72.21;102131.16;4189724;28;20029;-64
2024/01/12 03:03:07;;;;;;;27.77;17.45;;;;;;;-0.20;71.50;102130.63;4195710;28;20048;-64
2024/01/12 03:05:11;;;;;;;27.83;17.23;;;;;;;-0.19;71.42;102139.19;4195421;28;20167;-64
2024/01/12 03:07:14;;;;;;;30.88;18.45;;;;;;;-0.18;71.42;102123.09;4193983;28;20052;-64
2024/01/12 03:09:16;;;;;;;27.65;17.77;;;;;;;-0.13;71.78;102124.41;4191023;28;20546;-64
2024/01/12 03:11:20;;;;;;;30.20;19.50;;;;;;;-0.16;70.93;102124.13;4195115;28;20405;-64
2024/01/12 03:13:23;;;;;;;29.95;17.50;;;;;;;-0.20;71.41;102127.19;4177823;28;20095;-64
2024/01/12 03:15:26;;;;;;;27.30;17.23;;;;;;;-0.23;72.10;102122.72;4193320;28;21102;-63
2024/01/12 03:17:29;;;;;;;29.35;18.80;;;;;;;-0.15;71.38;102131.03;4192308;28;20439;-63
2024/01/12 03:19:32;;;;;;;26.85;17.55;;;;;;;-0.21;71.57;102130.50;4190699;28;20407;-63
2024/01/12 03:21:35;;;;;;;26.35;17.27;;;;;;;-0.27;71.80;102140.22;4199579;28;20090;-64
2024/01/12 03:23:38;;;;;;;26.45;17.85;;;;;;;-0.28;71.60;102129.09;4197105;28;20032;-63
2024/01/12 03:25:40;;;;;;;28.33;17.50;;;;;;;-0.30;71.51;102135.72;4198198;28;20032;-64
2024/01/12 03:27:45;;;;;;;33.53;19.35;;;;;;;-0.30;71.77;102124.63;4190062;28;20033;-64
2024/01/12 03:29:48;;;;;;;27.17;17.52;;;;;;;-0.34;71.22;102112.34;4197263;28;20041;-64
2024/01/12 03:31:51;;;;;;;29.73;18.38;;;;;;;-0.28;71.48;102117.97;4197388;28;20040;-64
2024/01/12 03:33:54;;;;;;;27.45;18.35;;;;;;;-0.30;71.51;102124.63;4198188;28;20043;-64
2024/01/12 03:35:57;;;;;;;28.35;17.40;;;;;;;-0.31;71.71;102122.81;4190056;28;20050;-63
2024/01/12 03:38:01;;;;;;;29.38;18.85;;;;;;;-0.32;71.16;102131.25;4187340;28;20029;-63
2024/01/12 03:40:04;;;;;;;27.42;18.65;;;;;;;-0.31;71.89;102135.59;4195892;28;20044;-63
2024/01/12 03:42:08;;;;;;;31.55;19.70;;;;;;;-0.29;71.00;102128.94;4199323;28;20044;-63
2024/01/12 03:44:12;;;;;;;27.92;18.05;;;;;;;-0.30;71.15;102135.72;4196978;28;20040;-63
2024/01/12 03:46:15;;;;;;;30.45;18.42;;;;;;;-0.25;71.53;102126.81;4194196;28;20472;-64
2024/01/12 03:48:18;;;;;;;34.08;18.38;;;;;;;-0.31;70.58;102133.94;4190735;28;20510;-64
2024/01/12 03:50:22;;;;;;;30.00;18.50;;;;;;;-0.34;71.15;102127.69;4196741;28;20036;-64
2024/01/12 03:52:25;;;;;;;30.67;19.45;;;;;;;-0.30;70.89;102129.75;4193520;28;20441;-64
2024/01/12 03:54:28;;;;;;;30.35;18.70;;;;;;;-0.32;70.35;102137.28;4196527;28;20451;-64
2024/01/12 03:56:31;;;;;;;26.95;17.90;;;;;;;-0.29;70.53;102131.50;4198025;28;20032;-65
2024/01/12 03:58:36;;;;;;;31.45;19.90;;;;;;;-0.30;70.09;102133.19;4191945;28;20065;-65
2024/01/12 04:00:40;;;;;;;;;;;;;;;-0.34;70.43;102130.25;4196407;28;20070;-65
2024/01/12 04:02:44;;;;;;;32.45;18.80;;;;;;;-0.40;70.18;102128.06;4204689;28;19970;-65
2024/01/12 04:04:47;;;;;;;29.45;18.52;;;;;;;-0.47;69.78;102121.50;4195626;28;20032;-64
2024/01/12 04:06:50;;;;;;;38.28;20.38;;;;;;;-0.46;70.59;102123.31;4197698;28;20036;-65
2024/01/12 04:08:53;;;;;;;34.88;19.63;;;;;;;-0.52;70.71;102120.22;4196253;28;20486;-64
2024/01/12 04:10:56;;;;;;;35.92;19.77;;;;;;;-0.52;70.63;102122.78;4183856;28;20056;-64
2024/01/12 04:12:59;;;;;;;28.95;18.77;;;;;;;-0.53;70.43;102121.00;4197582;28;20048;-64
2024/01/12 04:15:02;;;;;;;34.42;19.58;;;;;;;-0.58;70.31;102123.16;4197254;28;20161;-64
2024/01/12 04:17:07;;;;;;;34.97;21.05;;;;;;;-0.56;70.43;102128.41;4196240;28;20051;-64
2024/01/12 04:19:10;;;;;;;33.00;20.80;;;;;;;-0.56;70.83;102131.84;4193868;28;20081;-65
2024/01/12 04:21:13;;;;;;;30.33;18.55;;;;;;;-0.60;70.60;102126.34;4198538;28;20068;-64
2024/01/12 04:23:16;;;;;;;36.47;20.70;;;;;;;-0.62;71.13;102130.44;4194189;28;20505;-65
2024/01/12 04:25:19;;;;;;;35.38;20.50;;;;;;;-0.60;70.38;102131.44;4195313;28;20131;-64
2024/01/12 04:27:23;;;;;;;33.72;20.77;;;;;;;-0.63;70.50;102134.63;4195326;28;20040;-64
2024/01/12 04:29:26;;;;;;;34.40;20.90;;;;;;;-0.63;69.87;102138.84;4189246;28;20029;-64
2024/01/12 04:31:29;;;;;;;35.17;21.30;;;;;;;-0.66;69.68;102136.03;4187973;28;20093;-64
2024/01/12 04:33:34;;;;;;;35.28;22.10;;;;;;;-0.68;69.61;102145.22;4196434;28;20105;-65
2024/01/12 04:35:37;;;;;;;38.50;22.42;;;;;;;-0.75;70.22;102147.22;4193605;28;20626;-65
2024/01/12 04:37:40;;;;;;;31.38;20.00;;;;;;;-0.71;69.95;102146.72;4187952;28;20116;-64
2024/01/12 04:39:43;;;;;;;35.65;20.98;;;;;;;-0.60;69.78;102151.88;4196310;28;20043;-64
2024/01/12 04:41:46;;;;;;;33.22;21.38;;;;;;;-0.63;69.10;102143.94;4191252;28;20070;-63
2024/01/12 04:43:49;;;;;;;32.33;19.77;;;;;;;-0.69;70.32;102149.41;4193599;28;20047;-65
2024/01/12 04:45:52;;;;;;;33.35;21.92;;;;;;;-0.66;69.32;102143.69;4183987;28;20052;-65
2024/01/12 04:47:55;;;;;;;32.78;20.63;;;;;;;-0.66;70.40;102143.69;4188170;28;20047;-65
2024/01/12 04:49:59;;;;;;;40.58;22.33;;;;;;;-0.58;69.82;102148.69;4186000;28;20041;-64
2024/01/12 04:52:02;;;;;;;37.75;21.17;;;;;;;-0.67;69.41;102144.44;4198257;28;20036;-64
2024/01/12 04:54:05;;;;;;;35.70;22.75;;;;;;;-0.72;69.95;102149.16;4196761;28;20383;-64
2024/01/12 04:56:07;;;;;;;34.42;21.45;;;;;;;-0.77;69.25;102146.22;4192310;28;20487;-64
2024/01/12 04:58:11;;;;;;;38.08;20.85;;;;;;;-0.75;70.43;102151.44;4189741;28;20035;-65
2024/01/12 05:00:14;;;;;;;30.35;19.75;;;;;;;-0.79;69.78;102144.28;4188503;28;20089;-65
2024/01/12 05:02:17;;;;;;;34.33;21.50;;;;;;;-0.81;69.28;102149.25;4187699;28;20070;-64
2024/01/12 05:04:20;;;;;;;38.25;21.75;;;;;;;-0.82;69.86;102152.56;4197959;28;20486;-64
2024/01/12 05:06:25;;;;;;;38.50;21.83;;;;;;;-0.82;69.36;102156.78;4196616;28;20040;-64
2024/01/12 05:08:28;;;;;;;36.25;21.35;;;;;;;-0.85;70.26;102152.28;4192516;28;20488;-64
2024/01/12 05:10:31;;;;;;;36.53;22.17;;;;;;;-0.93;70.78;102149.06;4192037;28;20198;-64
2024/01/12 05:12:35;;;;;;;32.03;20.48;;;;;;;-0.97;71.03;102153.78;4197396;28;20085;-65
2024/01/12 05:14:38;;;;;;;35.55;21.88;;;;;;;-0.88;70.78;102152.03;4197877;28;20052;-64
2024/01/12 05:16:41;;;;;;;37.90;21.23;;;;;;;-0.91;70.24;102137.31;4196157;28;20033;-64
2024/01/12 05:18:44;;;;;;;34.15;21.52;;;;;;;-0.93;70.66;102137.97;4196050;28;20032;-64
2024/01/12 05:20:48;;;;;;;33.55;19.98;;;;;;;-0.99;70.21;102138.34;4197592;28;20399;-64
2024/01/12 05:22:52;;;;;;;34.53;20.30;;;;;;;-0.92;70.55;102137.19;4196362;28;20051;-65
2024/01/12 05:24:55;;;;;;;33.42;21.48;;;;;;;-0.91;70.01;102141.56;4197600;28;20649;-64
2024/01/12 05:26:59;;;;;;;37.92;20.98;;;;;;;-0.90;69.79;102136.56;4197500;28;20040;-64
2024/01/12 05:29:02;;;;;;;31.42;20.83;;;;;;;-0.93;70.43;102137.97;4193177;28;20129;-64
2024/01/12 05:31:05;;;;;;;31.98;20.98;;;;;;;-0.88;71.13;102139.25;4197357;28;20059;-64
2024/01/12 05:33:08;;;;;;;35.80;21.42;;;;;;;-0.82;70.39;102151.66;4192985;28;20043;-64
2024/01/12 05:35:11;;;;;;;38.08;22.65;;;;;;;-0.88;70.93;102149.47;4192816;28;20103;-64
2024/01/12 05:37:17;;;;;;;33.40;20.92;;;;;;;-0.89;70.98;102156.25;4195814;28;20044;-65
2024/01/12 05:39:21;;;;;;;35.63;21.35;;;;;;;-0.90;70.13;102159.56;4197256;28;20037;-64
2024/01/12 05:41:24;;;;;;;33.35;20.67;;;;;;;-0.92;70.33;102155.97;4195487;28;20048;-64
2024/01/12 05:43:27;;;;;;;31.20;20.05;;;;;;;-0.92;70.11;102158.53;4193205;28;20038;-64
2024/01/12 05:45:29;;;;;;;33.63;20.02;;;;;;;-0.87;70.32;102153.81;4197239;28;20045;-64
2024/01/12 05:47:32;;;;;;;34.15;19.80;;;;;;;-0.81;69.86;102164.56;4194024;28;20032;-64
2024/01/12 05:49:36;;;;;;;29.38;19.13;;;;;;;-0.73;70.39;102148.28;4197178;28;20029;-65
2024/01/12 05:51:39;;;;;;;37.53;21.87;;;;;;;-0.79;70.06;102155.41;4197294;28;20058;-64
2024/01/12 05:53:42;;;;;;;36.45;21.45;;;;;;;-0.85;70.40;102157.41;4196114;28;20301;-64
2024/01/12 05:55:49;;;;;;;33.05;20.63;;;;;;;-0.89;69.93;102157.91;4197214;28;20068;-64
2024/01/12 05:57:52;;;;;;;;;;;;;;;-1.03;70.16;102151.59;4195009;28;20071;-66
2024/01/12 05:59:55;;;;;;;36.65;20.67;;;;;;;-0.89;71.29;102151.13;4197253;28;19986;-65
2024/01/12 06:01:58;;;;;;;35.45;22.13;;;;;;;-0.85;70.52;102144.63;4197925;28;20045;-64
2024/01/12 06:04:01;;;;;;;32.35;20.17;;;;;;;-0.89;71.26;102150.25;4194433;28;20054;-65
2024/01/12 06:06:05;;;;;;;34.17;21.15;;;;;;;-0.89;71.53;102140.03;4189405;28;20087;-64
2024/01/12 06:08:08;;;;;;;34.25;20.38;;;;;;;-0.86;70.69;102136.84;4195745;28;20040;-64
2024/01/12 06:10:14;;;;;;;36.08;21.95;;;;;;;-0.84;71.72;102132.78;4197317;28;20041;-65
2024/01/12 06:12:18;;;;;;;35.47;21.60;;;;;;;-0.80;70.35;102133.19;4197130;28;20040;-64
2024/01/12 06:14:21;;;;;;;33.95;19.60;;;;;;;-0.79;71.47;102127.31;4197155;28;20044;-64
2024/01/12 06:16:25;;;;;;;33.90;20.73;;;;;;;-0.80;71.59;102137.41;4189406;28;20040;-64
2024/01/12 06:18:28;;;;;;;33.35;20.83;;;;;;;-0.77;71.49;102124.91;4195373;28;20398;-64
2024/01/12 06:20:31;;;;;;;35.53;21.25;;;;;;;-0.74;70.31;102136.25;4197079;28;20441;-64
2024/01/12 06:22:34;;;;;;;32.28;19.85;;;;;;;-0.72;70.27;102133.84;4195374;28;20037;-64
2024/01/12 06:24:37;;;;;;;29.95;19.02;;;;;;;-0.74;70.58;102126.03;4196813;28;20037;-64
2024/01/12 06:26:42;;;;;;;36.92;19.92;;;;;;;-0.68;70.59;102125.69;4196855;28;20040;-64
2024/01/12 06:28:46;;;;;;;27.27;18.65;;;;;;;-0.68;70.60;102119.69;4196762;28;20052;-64
2024/01/12 06:30:50;;;;;;;30.60;18.65;;;;;;;-0.65;70.88;102130.16;4196859;28;20502;-64
2024/01/12 06:32:53;;;;;;;31.38;18.08;;;;;;;-0.65;71.49;102136.16;4192876;28;20044;-64
2024/01/12 06:34:56;;;;;;;31.00;18.80;;;;;;;-0.64;71.56;102129.38;4196614;28;20132;-64
2024/01/12 06:36:59;;;;;;;28.45;17.67;;;;;;;-0.64;71.59;102121.72;4180363;28;20044;-64
2024/01/12 06:39:02;;;;;;;25.45;15.10;;;;;;;-0.63;70.51;102118.41;4188992;28;20033;-64
2024/01/12 06:41:04;;;;;;;25.73;16.02;;;;;;;-0.63;71.52;102118.41;4195605;28;20502;-64
2024/01/12 06:43:07;;;;;;;25.35;16.58;;;;;;;-0.57;70.88;102124.97;4192246;28;20043;-64
2024/01/12 06:45:13;;;;;;;27.42;16.13;;;;;;;-0.51;70.16;102139.91;4196830;28;20367;-64
2024/01/12 06:47:16;;;;;;;24.00;14.63;;;;;;;-0.56;70.28;102138.63;4195435;28;20036;-64
2024/01/12 06:49:19;;;;;;;23.08;14.82;;;;;;;-0.53;70.16;102138.88;4196904;28;20036;-64
2024/01/12 06:51:23;;;;;;;23.70;15.10;;;;;;;-0.41;69.77;102149.25;4196833;28;20102;-65
2024/01/12 06:53:26;;;;;;;23.37;15.87;;;;;;;-0.49;70.02;102153.72;4198702;28;20060;-64
2024/01/12 06:55:29;;;;;;;21.73;14.45;;;;;;;-0.49;69.74;102158.81;4199970;28;20448;-64
2024/01/12 06:57:32;;;;;;;24.48;15.23;;;;;;;-0.49;70.52;102160.47;4199711;28;20033;-64
2024/01/12 06:59:35;;;;;;;26.02;15.77;;;;;;;-0.42;70.19;102166.25;4199815;28;20087;-64
2024/01/12 07:01:42;;;;;;;22.50;14.48;;;;;;;-0.57;70.23;102162.34;4198771;28;20036;-64
2024/01/12 07:03:45;;;;;;;18.75;12.60;;;;;;;-0.62;70.32;102163.63;4196916;28;20041;-64
2024/01/12 07:05:48;;;;;;;22.77;14.73;;;;;;;-0.68;70.66;102166.53;4199848;28;20128;-65
2024/01/12 07:07:50;;;;;;;22.02;13.27;;;;;;;-0.49;69.96;102173.25;4198403;28;20514;-64
2024/01/12 07:09:53;;;;;;;23.60;13.20;;;;;;;-0.52;70.86;102176.44;4199514;28;20037;-64
2024/01/12 07:11:56;;;;;;;22.63;14.23;;;;;;;-0.59;70.78;102172.44;4199667;28;20048;-64
2024/01/12 07:13:59;;;;;;;22.52;14.88;;;;;;;-0.57;69.96;102176.03;4199594;28;20041;-65
2024/01/12 07:16:03;;;;;;;20.27;14.25;;;;;;;-0.55;70.90;102181.28;4199303;28;20425;-65
2024/01/12 07:18:08;;;;;;;19.58;13.50;;;;;;;-0.49;70.39;102183.47;4196970;28;20065;-64
2024/01/12 07:20:11;;;;;;;;;;;;;;;-0.42;69.45;102181.56;4198989;28;20028;-65
2024/01/12 07:22:14;;;;;;;23.50;14.13;;;;;;;-0.51;69.45;102180.78;4197880;28;20389;-64
2024/01/12 07:24:17;;;;;;;20.38;13.57;;;;;;;-0.60;69.75;102192.75;4198303;28;20043;-64
2024/01/12 07:26:20;;;;;;;23.33;14.95;;;;;;;-0.55;70.10;102207.72;4199400;28;20379;-65
2024/01/12 07:28:23;;;;;;;38.58;24.25;;;;;;;-0.57;70.87;102200.66;4197635;28;20524;-65
2024/01/12 07:30:26;;;;;;;48.80;32.08;;;;;;;-0.56;70.99;102194.81;4198091;28;20060;-64
2024/01/12 07:32:29;;;;;;;66.47;46.03;;;;;;;-0.57;70.24;102190.44;4199302;28;20040;-64
2024/01/12 07:34:33;;;;;;;64.85;42.17;;;;;;;-0.51;71.38;102197.75;4199348;28;20040;-64
2024/01/12 07:36:37;;;;;;;39.20;26.38;;;;;;;-0.47;70.10;102195.59;4199337;28;20040;-64
2024/01/12 07:38:40;;;;;;;35.00;20.80;;;;;;;-0.47;70.13;102197.25;4197973;28;20037;-64
2024/01/12 07:40:43;;;;;;;33.90;22.90;;;;;;;-0.48;71.11;102196.38;4199042;28;20493;-64
2024/01/12 07:42:46;;;;;;;25.02;17.52;;;;;;;-0.44;70.46;102195.88;4199327;28;20445;-64
2024/01/12 07:44:49;;;;;;;25.17;15.85;;;;;;;-0.34;69.98;102204.34;4199149;28;20048;-65
2024/01/12 07:46:52;;;;;;;21.45;15.38;;;;;;;-0.24;69.60;102199.25;4197875;28;20040;-64
2024/01/12 07:48:56;;;;;;;23.38;14.75;;;;;;;-0.32;69.55;102192.56;4194626;28;20485;-64
2024/01/12 07:51:01;;;;;;;20.23;13.80;;;;;;;-0.30;69.32;102191.97;4199203;28;20068;-64
2024/01/12 07:53:05;;;;;;;20.33;13.48;;;;;;;-0.38;70.12;102193.84;4196888;28;20033;-64
2024/01/12 07:55:08;;;;;;;26.27;15.95;;;;;;;-0.21;68.96;102202.94;4197315;28;20098;-65
2024/01/12 07:57:11;;;;;;;24.33;15.70;;;;;;;-0.35;69.98;102208.56;4198688;28;20158;-65
2024/01/12 07:59:14;;;;;;;22.05;14.07;;;;;;;-0.27;69.01;102219.44;4196283;28;20043;-65
2024/01/12 08:01:16;;;;;;;21.50;13.63;;;;;;;-0.46;70.25;102215.28;4198829;28;20044;-65
2024/01/12 08:03:19;;;;;;;21.92;13.45;;;;;;;-0.49;69.68;102215.03;4198846;28;20456;-65
2024/01/12 08:05:23;;;;;;;23.08;13.32;;;;;;;-0.49;70.29;102225.22;4197000;28;20131;-65
2024/01/12 08:07:29;;;;;;;22.25;13.93;;;;;;;-0.17;69.41;102226.25;4198461;28;20046;-64
2024/01/12 08:09:32;;;;;;;21.45;12.70;;;;;;;-0.44;69.75;102224.00;4197563;28;20047;-64
2024/01/12 08:11:35;;;;;;;20.98;13.32;;;;;;;-0.58;69.10;102229.56;4198650;28;20040;-64
2024/01/12 08:13:43;;;;;;;20.73;13.40;;;;;;;-0.72;70.64;102226.66;4196386;28;20469;-65
2024/01/12 08:15:46;;;;;;;19.02;12.25;;;;;;;-0.49;69.00;102227.78;4198639;28;20120;-64
2024/01/12 08:17:48;;;;;;;20.77;14.10;;;;;;;-0.51;68.95;102231.88;4198302;28;20083;-65
2024/01/12 08:19:51;;;;;;;26.88;13.50;;;;;;;-0.39;68.35;102237.16;4198583;28;20040;-64
2024/01/12 08:21:54;;;;;;;22.38;12.82;;;;;;;-0.49;68.31;102229.47;4198366;28;20045;-65
2024/01/12 08:23:59;;;;;;;23.20;13.82;;;;;;;-0.54;69.09;102236.69;4196485;28;20451;-65
2024/01/12 08:26:02;;;;;;;27.08;14.60;;;;;;;-0.75;68.80;102240.81;4198546;28;20075;-64
2024/01/12 08:28:04;;;;;;;26.42;13.75;;;;;;;-0.68;69.58;102235.50;4198270;28;20127;-64
2024/01/12 08:30:08;;;;;;;20.88;13.05;;;;;;;-0.91;69.54;102224.13;4198586;28;20037;-64
2024/01/12 08:32:12;;;;;;;22.23;13.75;;;;;;;-0.95;71.47;102228.84;4198395;28;20060;-64
2024/01/12 08:34:15;;;;;;;22.00;13.13;;;;;;;-0.77;70.91;102221.94;4197192;28;20397;-64
2024/01/12 08:36:19;;;;;;;22.85;14.43;;;;;;;-0.76;69.90;102224.63;4198449;28;20105;-64
2024/01/12 08:38:22;;;;;;;20.98;13.85;;;;;;;-0.90;70.62;102227.59;4196904;28;20044;-64
2024/01/12 08:40:26;;;;;;;26.77;14.63;;;;;;;-0.82;70.38;102228.28;4196916;28;20094;-66
2024/01/12 08:42:29;;;;;;;21.70;13.32;;;;;;;-0.94;70.77;102222.97;4197009;28;20157;-66
2024/01/12 08:44:32;;;;;;;24.85;14.48;;;;;;;-0.64;70.37;102234.09;4197111;28;20036;-66
2024/01/12 08:46:34;;;;;;;24.70;14.27;;;;;;;-0.67;70.14;102232.19;4198107;28;20040;-66
2024/01/12 08:48:37;;;;;;;30.55;17.27;;;;;;;-0.78;70.85;102238.88;4197963;28;20098;-66
2024/01/12 08:50:41;;;;;;;27.55;15.60;;;;;;;-0.75;71.03;102246.81;4198310;28;20033;-65
2024/01/12 08:52:44;;;;;;;29.13;15.43;;;;;;;-0.69;71.19;102243.91;4197777;28;20462;-64
2024/01/12 08:54:47;;;;;;;24.50;13.90;;;;;;;-0.63;71.08;102234.22;4194099;28;20040;-64
2024/01/12 08:56:52;;;;;;;23.17;13.93;;;;;;;-0.52;69.75;102224.09;4198011;28;20032;-64
2024/01/12 08:58:55;;;;;;;25.73;15.55;;;;;;;-0.58;70.00;102219.34;4197886;28;20067;-64
2024/01/12 09:00:57;;;;;;;27.95;15.25;;;;;;;-0.55;68.88;102227.25;4197832;28;20124;-64
2024/01/12 09:03:01;;;;;;;26.55;14.75;;;;;;;-0.68;70.08;102230.38;4198065;28;20045;-64
2024/01/12 09:05:04;;;;;;;25.98;15.23;;;;;;;-0.65;70.45;102237.44;4191896;28;20044;-64
2024/01/12 09:07:07;;;;;;;28.30;15.68;;;;;;;-0.65;70.13;102237.44;4195954;28;20055;-64
2024/01/12 09:09:10;;;;;;;24.48;13.35;;;;;;;-0.66;69.98;102243.28;4195514;28;20040;-64
2024/01/12 09:11:14;;;;;;;31.25;15.75;;;;;;;-0.65;69.63;102240.88;4192370;28;20029;-64
2024/01/12 09:13:18;;;;;;;26.73;15.40;;;;;;;-0.58;70.39;102245.75;4197679;28;20041;-64
2024/01/12 09:15:21;;;;;;;30.67;17.05;;;;;;;-0.54;70.35;102242.72;4197263;28;20040;-65
2024/01/12 09:17:24;;;;;;;29.65;15.77;;;;;;;-0.54;69.08;102242.72;4197462;28;20445;-64
2024/01/12 09:19:26;;;;;;;25.15;15.48;;;;;;;-0.60;70.24;102247.31;4197760;28;20413;-65